Aviation Digital Data Service (ADDS)

Output produced by METARs form (0522 UTC 16 December 2017)
found at http://www.aviationweather.gov/adds/metars/
 
METAR text: KSBA 160453Z 00000KT 8SM FU CLR 09/06 A2995 RMK AO2 SLP143 T00890056 $
Conditions at: KSBA (SANTA BARBARA , CA, US) observed 0453 UTC 16 December 2017
Temperature: 8.9°C (48°F)
Dewpoint: 5.6°C (42°F) [RH = 80%]
Pressure (altimeter): 29.95 inches Hg (1014.3 mb)
[Sea-level pressure: 1014.3 mb]
Winds: calm
Visibility: 8 miles (13 km)
Ceiling: at least 12,000 feet AGL
Clouds: sky clear below 12,000 feet AGL
Weather: FU  (smoke)
SOME DATA ABOVE MAY BE INACCURATE!!!
"$" is an indication the sensor requires maintenance

METAR text: KSBA 160353Z 00000KT 7SM FU CLR 09/07 A2996 RMK AO2 SLP146 T00940072 $
Conditions at: KSBA (SANTA BARBARA , CA, US) observed 0353 UTC 16 December 2017
Temperature: 9.4°C (49°F)
Dewpoint: 7.2°C (45°F) [RH = 86%]
Pressure (altimeter): 29.96 inches Hg (1014.6 mb)
[Sea-level pressure: 1014.6 mb]
Winds: calm
Visibility: 7 miles (11 km)
Ceiling: at least 12,000 feet AGL
Clouds: sky clear below 12,000 feet AGL
Weather: FU  (smoke)
SOME DATA ABOVE MAY BE INACCURATE!!!
"$" is an indication the sensor requires maintenance

METAR text: KSBA 160253Z 03004KT 7SM FU CLR 12/09 A2997 RMK AO2 SLP149 T01170094 56011 $
Conditions at: KSBA (SANTA BARBARA , CA, US) observed 0253 UTC 16 December 2017
Temperature: 11.7°C (53°F)
Dewpoint: 9.4°C (49°F) [RH = 86%]
Pressure (altimeter): 29.97 inches Hg (1015.0 mb)
[Sea-level pressure: 1014.9 mb]
Winds: from the NNE (30 degrees) at 5 MPH (4 knots; 2.1 m/s)
Visibility: 7 miles (11 km)
Ceiling: at least 12,000 feet AGL
Clouds: sky clear below 12,000 feet AGL
Weather: FU  (smoke)
SOME DATA ABOVE MAY BE INACCURATE!!!
"$" is an indication the sensor requires maintenance

METAR text: KSBA 160153Z 00000KT 7SM FU CLR 14/13 A2998 RMK AO2 SLP152 T01390128 $
Conditions at: KSBA (SANTA BARBARA , CA, US) observed 0153 UTC 16 December 2017
Temperature: 13.9°C (57°F)
Dewpoint: 12.8°C (55°F) [RH = 93%]
Pressure (altimeter): 29.98 inches Hg (1015.3 mb)
[Sea-level pressure: 1015.2 mb]
Winds: calm
Visibility: 7 miles (11 km)
Ceiling: at least 12,000 feet AGL
Clouds: sky clear below 12,000 feet AGL
Weather: FU  (smoke)
SOME DATA ABOVE MAY BE INACCURATE!!!
"$" is an indication the sensor requires maintenance

METAR text: KSBA 160053Z 28003KT 8SM FU CLR 16/07 A2999 RMK AO2 SLP155 T01560067 $
Conditions at: KSBA (SANTA BARBARA , CA, US) observed 0053 UTC 16 December 2017
Temperature: 15.6°C (60°F)
Dewpoint: 6.7°C (44°F) [RH = 55%]
Pressure (altimeter): 29.99 inches Hg (1015.7 mb)
[Sea-level pressure: 1015.5 mb]
Winds: from the W (280 degrees) at 3 MPH (3 knots; 1.6 m/s)
Visibility: 8 miles (13 km)
Ceiling: at least 12,000 feet AGL
Clouds: sky clear below 12,000 feet AGL
Weather: FU  (smoke)
SOME DATA ABOVE MAY BE INACCURATE!!!
"$" is an indication the sensor requires maintenance

METAR text: KSBA 152353Z 26007KT 8SM FU CLR 18/09 A3001 RMK AO2 SLP160 T01830094 10244 20183 56019 $
Conditions at: KSBA (SANTA BARBARA , CA, US) observed 2353 UTC 15 December 2017
Temperature: 18.3°C (65°F)
Dewpoint: 9.4°C (49°F) [RH = 56%]
Pressure (altimeter): 30.01 inches Hg (1016.3 mb)
[Sea-level pressure: 1016.0 mb]
Winds: from the W (260 degrees) at 8 MPH (7 knots; 3.6 m/s)
Visibility: 8 miles (13 km)
Ceiling: at least 12,000 feet AGL
Clouds: sky clear below 12,000 feet AGL
Weather: FU  (smoke)
SOME DATA ABOVE MAY BE INACCURATE!!!
"$" is an indication the sensor requires maintenance

METAR text: KSBA 152253Z 26007KT 10SM FU CLR 22/M01 A3002 RMK AO2 SLP167 T02221006 $
Conditions at: KSBA (SANTA BARBARA , CA, US) observed 2253 UTC 15 December 2017
Temperature: 22.2°C (72°F)
Dewpoint: -0.6°C (31°F) [RH = 22%]
Pressure (altimeter): 30.02 inches Hg (1016.7 mb)
[Sea-level pressure: 1016.7 mb]
Winds: from the W (260 degrees) at 8 MPH (7 knots; 3.6 m/s)
Visibility: 10 or more miles (16+ km)
Ceiling: at least 12,000 feet AGL
Clouds: sky clear below 12,000 feet AGL
Weather: FU  (smoke)
SOME DATA ABOVE MAY BE INACCURATE!!!
"$" is an indication the sensor requires maintenance

METAR text: KSBA 152153Z VRB03KT 7SM FU CLR 23/M04 A3004 RMK AO2 SLP171 T02331039 $
Conditions at: KSBA (SANTA BARBARA , CA, US) observed 2153 UTC 15 December 2017
Temperature: 23.3°C (74°F)
Dewpoint: -3.9°C (25°F) [RH = 16%]
Pressure (altimeter): 30.04 inches Hg (1017.4 mb)
[Sea-level pressure: 1017.1 mb]
Winds: variable direction winds at 3 MPH (3 knots; 1.6 m/s)
Visibility: 7 miles (11 km)
Ceiling: at least 12,000 feet AGL
Clouds: sky clear below 12,000 feet AGL
Weather: FU  (smoke)
SOME DATA ABOVE MAY BE INACCURATE!!!
"$" is an indication the sensor requires maintenance